METAR UND TAF INFORMATION

METAR FOR OTHH
ADDS - METARS form results

(0155 UTC 26 June 2022)
Data provider http://aviationweather.gov/metar/data/
 
METAR text: OTHH 260100Z AUTO 30006KT CAVOK 35/18 Q0995 NOSIG
Conditions at: OTHH (DOHA HAMAD INTL , QA) observed 0100 UTC 26 June 2022
Temperature: 35.0°C (95°F)
Dewpoint: 18.0°C (64°F) [RH = 37%]
Pressure (altimeter): 29.38 inches Hg (995.0 mb)
Winds: from the WNW (300 degrees) at 7 MPH (6 knots; 3.1 m/s)
Visibility: 6 or more miles (10+ km)
Ceiling: ceiling and visibility are OK
Clouds: unknown
Weather: no significant weather observed at this time

Forecast for: OTHH (DOHA HAMAD INTL , QA)
Text: TAF OTHH 251702Z 2518/2624 31007KT 8000 NSC
Forecast period: 1800 UTC 25 June 2022 to 0600 UTC 26 June 2022
Forecast type: FROM: standard forecast or significant change
Winds: from the NW (310 degrees) at 8 MPH (7 knots; 3.6 m/s)
Visibility: 5 miles (8 km)
Ceiling: unknown
Clouds: missing
Weather: no significant weather forecast for this period
Text: BECMG 2606/2608 02013KT
Forecast period: 0600 UTC 26 June 2022 to 0000 UTC 27 June 2022
Forecast type: BECOMING: Conditions expected to become as follows by 0800 UTC 26 June 2022
Winds: from the NNE (20 degrees) at 15 MPH (13 knots; 6.7 m/s)
Visibility: 5 miles (8 km)
Ceiling: unknown
Clouds: missing
Weather: no significant weather forecast for this period

 FLUGHAFENKARTE

 RUNWAY INFORMATION

 AIRPORT FREQUENCIES

 AIRPORT NEAR NAVIGATION AIDS